Time;durP1;ratioP1;P1;durP2;ratioP2;P2;SDS_P1;SDS_P2;PMS_P1;PMS_P2;Temp;Humidity;BMP_temperature;BMP_pressure;BME280_temperature;BME280_humidity;BME280_pressure;Samples;Min_cycle;Max_cycle;Signal;HPM_P1;HPM_P2
2023/06/15 00:00:23;;;;;;;6.15;2.88;;;17.50;99.80;;;;;;4981310;28;20060;-57
2023/06/15 00:02:49;;;;;;;4.95;2.70;;;17.40;99.70;;;;;;4977237;28;20038;-54
2023/06/15 00:05:16;;;;;;;6.68;3.20;;;17.40;99.50;;;;;;4962071;28;20465;-51
2023/06/15 00:07:42;;;;;;;5.55;2.80;;;17.40;99.50;;;;;;4962004;28;20348;-57
2023/06/15 00:10:08;;;;;;;5.43;2.97;;;17.30;99.50;;;;;;4967418;28;20034;-55
2023/06/15 00:12:34;;;;;;;5.55;3.13;;;17.20;99.50;;;;;;4981000;28;20043;-52
2023/06/15 00:15:00;;;;;;;7.70;2.92;;;17.10;99.60;;;;;;4981168;28;20251;-56
2023/06/15 00:17:26;;;;;;;5.68;3.15;;;17.10;99.80;;;;;;4981056;28;20062;-54
2023/06/15 00:19:53;;;;;;;7.50;3.15;;;16.90;99.90;;;;;;4980818;28;20081;-57
2023/06/15 00:22:19;;;;;;;5.88;2.95;;;16.90;99.90;;;;;;4981874;28;20050;-51
2023/06/15 00:24:45;;;;;;;5.95;3.15;;;16.90;99.90;;;;;;4971616;28;20486;-49
2023/06/15 00:27:11;;;;;;;7.10;3.20;;;16.80;99.90;;;;;;4961408;28;20395;-56
2023/06/15 00:29:37;;;;;;;7.47;3.00;;;16.80;99.90;;;;;;4961807;28;20073;-48
2023/06/15 00:32:04;;;;;;;7.05;2.97;;;16.80;99.90;;;;;;4962104;28;20551;-56
2023/06/15 00:34:30;;;;;;;7.75;3.38;;;16.80;99.90;;;;;;4961665;28;20433;-53
2023/06/15 00:36:56;;;;;;;6.47;2.92;;;16.70;99.90;;;;;;4961012;28;20465;-52
2023/06/15 00:39:21;;;;;;;7.90;3.10;;;16.70;99.90;;;;;;4965400;28;20050;-58
2023/06/15 00:41:47;;;;;;;5.68;3.10;;;16.80;99.90;;;;;;4967239;28;20047;-57
2023/06/15 00:44:12;;;;;;;5.85;3.47;;;16.80;99.90;;;;;;4964856;28;20466;-54
2023/06/15 00:46:39;;;;;;;8.10;3.35;;;16.70;99.90;;;;;;4984319;28;20054;-52
2023/06/15 00:49:05;;;;;;;8.20;3.30;;;16.80;99.90;;;;;;4984305;28;20046;-55
2023/06/15 00:51:33;;;;;;;5.80;3.80;;;16.80;99.90;;;;;;4984268;28;20390;-57
2023/06/15 00:54:00;;;;;;;11.73;3.60;;;16.80;99.90;;;;;;4984262;28;20133;-53
2023/06/15 00:56:29;;;;;;;6.63;3.45;;;16.80;99.90;;;;;;4983597;28;20469;-54
2023/06/15 00:58:55;;;;;;;6.97;3.70;;;16.80;99.90;;;;;;4966786;28;20062;-56
2023/06/15 01:01:20;;;;;;;7.13;3.83;;;16.80;99.90;;;;;;4983960;28;20501;-53
2023/06/15 01:03:46;;;;;;;6.57;3.75;;;16.80;99.90;;;;;;4984630;28;20043;-52
2023/06/15 01:06:16;;;;;;;7.65;3.80;;;16.80;99.90;;;;;;4983291;28;20116;-52
2023/06/15 01:08:47;;;;;;;7.25;3.65;;;16.80;99.90;;;;;;4983414;28;20050;-57
2023/06/15 01:11:16;;;;;;;9.65;3.65;;;16.80;99.90;;;;;;4982576;28;20425;-51
2023/06/15 01:13:45;;;;;;;5.88;3.80;;;16.80;99.90;;;;;;4984364;28;20042;-57
2023/06/15 01:16:22;;;;;;;5.43;3.65;;;16.90;99.90;;;;;;4983180;28;20054;-49
2023/06/15 01:18:56;;;;;;;8.45;3.45;;;16.80;99.90;;;;;;4984550;28;20039;-54
2023/06/15 01:21:26;;;;;;;6.63;3.70;;;16.80;99.90;;;;;;4984296;28;20069;-55
2023/06/15 01:24:20;;;;;;;9.02;3.78;;;16.70;99.90;;;;;;4984012;28;20089;-53
2023/06/15 01:26:49;;;;;;;7.10;4.07;;;16.70;99.90;;;;;;4983345;28;20058;-50
2023/06/15 01:29:17;;;;;;;7.40;4.03;;;16.60;99.90;;;;;;4983715;28;20469;-57
2023/06/15 01:31:43;;;;;;;7.10;4.13;;;16.60;99.90;;;;;;4983751;28;20046;-56
2023/06/15 01:34:09;;;;;;;5.97;3.85;;;16.60;99.90;;;;;;4982852;28;20448;-52
2023/06/15 01:36:36;;;;;;;7.30;4.18;;;16.60;99.90;;;;;;4983360;28;20625;-53
2023/06/15 01:39:02;;;;;;;7.70;4.38;;;16.60;99.90;;;;;;4982886;28;20405;-55
2023/06/15 01:41:27;;;;;;;7.50;4.43;;;16.60;99.90;;;;;;4983070;28;20124;-48
2023/06/15 01:43:56;;;;;;;7.45;4.10;;;16.60;99.90;;;;;;4983833;28;20042;-55
2023/06/15 01:46:22;;;;;;;7.10;4.15;;;16.60;99.90;;;;;;4983577;28;20042;-53
2023/06/15 01:48:49;;;;;;;9.10;4.28;;;16.60;99.90;;;;;;4983711;28;20552;-56
2023/06/15 01:51:16;;;;;;;6.80;4.20;;;16.60;99.90;;;;;;4980901;28;20050;-57
2023/06/15 01:53:42;;;;;;;7.93;4.32;;;16.60;99.90;;;;;;4983029;28;20046;-51
2023/06/15 01:56:08;;;;;;;5.13;4.05;;;16.60;99.90;;;;;;4982639;28;20307;-53
2023/06/15 01:58:33;;;;;;;8.63;4.00;;;16.60;99.90;;;;;;4982742;28;20061;-57
2023/06/15 02:00:59;;;;;;;8.80;4.32;;;16.60;99.90;;;;;;4983150;28;20418;-60
2023/06/15 02:03:25;;;;;;;10.25;4.60;;;16.60;99.90;;;;;;4983815;28;20057;-49
2023/06/15 02:05:50;;;;;;;7.90;4.47;;;16.60;99.90;;;;;;4983069;28;20493;-51
2023/06/15 02:08:16;;;;;;;9.48;4.60;;;16.60;99.90;;;;;;4964559;28;20136;-53
2023/06/15 02:10:41;;;;;;;9.07;4.63;;;16.50;99.90;;;;;;4982067;28;20034;-57
2023/06/15 02:13:10;;;;;;;9.65;4.72;;;16.40;99.90;;;;;;4982853;28;20043;-56
2023/06/15 02:15:36;;;;;;;10.35;4.90;;;16.50;99.90;;;;;;4964424;28;20050;-48
2023/06/15 02:18:04;;;;;;;7.30;4.82;;;16.40;99.90;;;;;;4982614;28;20509;-54
2023/06/15 02:20:31;;;;;;;9.48;4.90;;;16.40;99.90;;;;;;4982965;28;20050;-49
2023/06/15 02:22:57;;;;;;;9.52;5.20;;;16.40;99.90;;;;;;4982402;28;20401;-57
2023/06/15 02:25:24;;;;;;;8.43;5.20;;;16.40;99.90;;;;;;4982137;28;20034;-54
2023/06/15 02:27:50;;;;;;;12.63;5.10;;;16.50;99.90;;;;;;4982680;28;20488;-57
2023/06/15 02:30:17;;;;;;;11.05;4.90;;;16.40;99.90;;;;;;4982604;28;20109;-57
2023/06/15 02:32:43;;;;;;;9.77;5.32;;;16.30;99.90;;;;;;4982083;28;20057;-57
2023/06/15 02:35:11;;;;;;;10.73;5.47;;;16.30;99.90;;;;;;4982121;28;20045;-53
2023/06/15 02:37:37;;;;;;;11.95;5.40;;;16.30;99.90;;;;;;4967055;28;20108;-56
2023/06/15 02:40:04;;;;;;;9.85;5.22;;;16.20;99.90;;;;;;4981521;28;20085;-49
2023/06/15 02:42:29;;;;;;;9.88;5.18;;;16.20;99.90;;;;;;4982443;28;20034;-56
2023/06/15 02:44:55;;;;;;;10.80;5.05;;;16.20;99.90;;;;;;4982560;28;20445;-51
2023/06/15 02:47:22;;;;;;;9.90;5.18;;;16.20;99.90;;;;;;4981527;28;20240;-54
2023/06/15 02:49:47;;;;;;;7.63;5.00;;;16.20;99.90;;;;;;4982548;28;20058;-56
2023/06/15 02:52:13;;;;;;;8.38;4.85;;;16.20;99.90;;;;;;4982481;28;20221;-57
2023/06/15 02:54:39;;;;;;;9.02;5.13;;;16.20;99.90;;;;;;4972698;28;20111;-51
2023/06/15 02:57:08;;;;;;;8.18;4.90;;;16.10;99.90;;;;;;4962038;28;20141;-53
2023/06/15 02:59:35;;;;;;;6.43;4.85;;;16.10;99.90;;;;;;4963065;28;20047;-57
2023/06/15 03:02:01;;;;;;;7.68;4.30;;;16.10;99.90;;;;;;4962503;28;20066;-49
2023/06/15 03:04:27;;;;;;;9.07;4.68;;;16.10;99.90;;;;;;4962332;28;20093;-53
2023/06/15 03:06:56;;;;;;;8.73;4.85;;;16.10;99.90;;;;;;4961979;28;20062;-53
2023/06/15 03:09:22;;;;;;;8.95;5.05;;;16.00;99.90;;;;;;4961516;28;20338;-57
2023/06/15 03:11:47;;;;;;;6.32;4.35;;;16.00;99.90;;;;;;4961642;28;20043;-51
2023/06/15 03:14:13;;;;;;;7.15;4.35;;;15.90;99.90;;;;;;4962374;28;20489;-53
2023/06/15 03:16:39;;;;;;;8.18;4.43;;;15.90;99.90;;;;;;4962373;28;20509;-54
2023/06/15 03:19:08;;;;;;;7.90;4.68;;;17.10;99.90;;;;;;4944967;28;20050;-55
2023/06/15 03:21:33;;;;;;;7.18;4.18;;;15.90;99.90;;;;;;4962173;28;20039;-55
2023/06/15 03:23:59;;;;;;;8.50;4.38;;;15.90;99.90;;;;;;4961821;28;20596;-53
2023/06/15 03:26:26;;;;;;;9.15;5.30;;;15.90;99.90;;;;;;4945006;28;20059;-54
2023/06/15 03:28:53;;;;;;;7.57;4.60;;;15.90;99.90;;;;;;4961609;28;20042;-54
2023/06/15 03:31:19;;;;;;;6.78;4.40;;;15.90;99.90;;;;;;4962603;28;20058;-58
2023/06/15 03:33:45;;;;;;;7.45;4.30;;;15.80;99.90;;;;;;4962436;28;20038;-50
2023/06/15 03:36:14;;;;;;;5.97;4.57;;;15.90;99.90;;;;;;4944295;28;20110;-53
2023/06/15 03:38:43;;;;;;;8.00;4.55;;;15.80;99.90;;;;;;4962239;28;20409;-48
2023/06/15 03:41:09;;;;;;;10.55;4.30;;;15.80;99.90;;;;;;4961786;28;20118;-52
2023/06/15 03:43:38;;;;;;;6.95;4.28;;;15.70;99.90;;;;;;4961909;28;20328;-57
2023/06/15 03:46:05;;;;;;;6.43;4.38;;;15.70;99.90;;;;;;4962144;28;20209;-57
2023/06/15 03:48:30;;;;;;;9.48;4.60;;;15.70;99.90;;;;;;4962563;28;20417;-53
2023/06/15 03:50:56;;;;;;;7.43;4.30;;;15.70;99.90;;;;;;4962190;28;20061;-50
2023/06/15 03:53:24;;;;;;;9.38;4.13;;;15.80;99.90;;;;;;4961563;28;20128;-58
2023/06/15 03:55:49;;;;;;;9.65;4.57;;;15.90;99.90;;;;;;4961460;28;20502;-55
2023/06/15 03:58:16;;;;;;;6.82;4.60;;;15.90;99.90;;;;;;4961951;28;20054;-54
2023/06/15 04:00:43;;;;;;;10.32;4.50;;;15.90;99.90;;;;;;4961104;28;20047;-52
2023/06/15 04:03:09;;;;;;;8.15;4.47;;;16.00;99.90;;;;;;4962318;28;20061;-57
2023/06/15 04:05:34;;;;;;;6.47;4.22;;;16.10;99.90;;;;;;4961757;28;20402;-57
2023/06/15 04:08:01;;;;;;;6.30;3.38;;;16.10;99.90;;;;;;4962672;28;20126;-54
2023/06/15 04:10:27;;;;;;;10.10;4.43;;;16.10;99.90;;;;;;4960607;28;20047;-50
2023/06/15 04:12:52;;;;;;;7.00;4.00;;;16.30;99.90;;;;;;4961753;28;20544;-54
2023/06/15 04:15:18;;;;;;;8.52;4.18;;;16.70;99.90;;;;;;4964989;28;20417;-55
2023/06/15 04:17:44;;;;;;;9.70;3.75;;;16.80;99.90;;;;;;4965193;28;20061;-57
2023/06/15 04:20:10;;;;;;;5.85;3.83;;;16.80;99.90;;;;;;4965447;28;20046;-55
2023/06/15 04:22:36;;;;;;;8.27;3.92;;;16.70;99.90;;;;;;4965115;28;20053;-54
2023/06/15 04:25:03;;;;;;;6.35;4.30;;;16.70;99.90;;;;;;4964703;28;20344;-56
2023/06/15 04:27:31;;;;;;;7.93;4.10;;;16.70;99.90;;;;;;4965534;28;20055;-56
2023/06/15 04:29:57;;;;;;;6.70;4.07;;;16.60;99.90;;;;;;4965168;28;20502;-51
2023/06/15 04:32:25;;;;;;;6.78;4.05;;;16.60;99.90;;;;;;4982158;28;20303;-53
2023/06/15 04:34:54;;;;;;;6.90;4.22;;;16.60;99.90;;;;;;4984115;28;20117;-57
2023/06/15 04:37:20;;;;;;;7.30;3.80;;;16.60;99.90;;;;;;4984924;28;20058;-54
2023/06/15 04:39:46;;;;;;;8.30;4.07;;;16.60;99.90;;;;;;4983631;28;20118;-54
2023/06/15 04:42:12;;;;;;;6.72;3.65;;;16.60;99.90;;;;;;4984193;28;20301;-57
2023/06/15 04:44:38;;;;;;;7.40;4.25;;;16.50;99.90;;;;;;4984275;28;20067;-54
2023/06/15 04:47:04;;;;;;;7.75;4.07;;;16.40;99.90;;;;;;4984813;28;20050;-57
2023/06/15 04:49:31;;;;;;;9.98;4.22;;;16.40;99.90;;;;;;4983999;28;20588;-53
2023/06/15 04:51:57;;;;;;;6.97;4.35;;;16.50;99.90;;;;;;4984577;28;20054;-54
2023/06/15 04:54:23;;;;;;;6.20;4.00;;;16.80;99.90;;;;;;4983949;28;20034;-57
2023/06/15 04:56:49;;;;;;;6.85;3.95;;;17.30;99.90;;;;;;4984631;28;20444;-57
2023/06/15 04:59:14;;;;;;;7.78;3.92;;;17.70;99.90;;;;;;4983794;28;20445;-53
2023/06/15 05:01:40;;;;;;;5.65;3.47;;;18.00;99.60;;;;;;4984140;28;20088;-51
2023/06/15 05:04:06;;;;;;;9.10;3.97;;;18.30;99.10;;;;;;4984138;28;20053;-57
2023/06/15 05:06:31;;;;;;;5.05;3.65;;;18.40;98.50;;;;;;4983808;28;20488;-56
2023/06/15 05:08:57;;;;;;;5.25;3.30;;;18.50;98.20;;;;;;4983440;28;20038;-52
2023/06/15 05:11:23;;;;;;;7.50;3.90;;;18.50;97.60;;;;;;4984097;28;20047;-51
2023/06/15 05:13:48;;;;;;;5.53;3.22;;;18.60;97.20;;;;;;4966426;28;20596;-51
2023/06/15 05:16:14;;;;;;;5.30;3.25;;;18.70;96.50;;;;;;4983153;28;20049;-53
2023/06/15 05:18:39;;;;;;;10.38;3.95;;;18.80;96.20;;;;;;4983711;28;20138;-57
2023/06/15 05:21:05;;;;;;;6.88;3.42;;;18.90;95.70;;;;;;4984305;28;20050;-51
2023/06/15 05:23:31;;;;;;;7.38;3.53;;;19.00;95.30;;;;;;4982700;28;20035;-53
2023/06/15 05:25:58;;;;;;;5.85;3.78;;;19.20;95.10;;;;;;4982754;28;20049;-53
2023/06/15 05:28:24;;;;;;;4.60;3.40;;;19.40;94.70;;;;;;4983951;28;20100;-58
2023/06/15 05:30:50;;;;;;;5.25;3.25;;;19.60;94.20;;;;;;4984081;28;20482;-56
2023/06/15 05:33:16;;;;;;;5.57;3.33;;;19.90;94.20;;;;;;4965313;28;20050;-53
2023/06/15 05:35:41;;;;;;;9.48;3.65;;;20.20;93.50;;;;;;4983436;28;20383;-54
2023/06/15 05:38:07;;;;;;;6.10;3.20;;;20.40;93.30;;;;;;4983728;28;20042;-49
2023/06/15 05:40:32;;;;;;;5.68;3.13;;;20.70;92.90;;;;;;4965324;28;20038;-56
2023/06/15 05:42:58;;;;;;;5.00;3.17;;;21.00;92.70;;;;;;4983699;28;20465;-56
2023/06/15 05:45:24;;;;;;;5.88;2.85;;;21.50;92.30;;;;;;4983522;28;20039;-58
2023/06/15 05:47:50;;;;;;;10.40;3.25;;;21.70;91.60;;;;;;4983284;28;20413;-54
2023/06/15 05:50:16;;;;;;;7.47;3.00;;;22.00;90.90;;;;;;4982576;28;20259;-49
2023/06/15 05:52:42;;;;;;;8.77;3.22;;;22.20;90.60;;;;;;4983317;28;20047;-56
2023/06/15 05:55:07;;;;;;;4.88;3.30;;;22.40;90.30;;;;;;4983472;28;20046;-57
2023/06/15 05:57:34;;;;;;;6.53;3.50;;;22.50;90.10;;;;;;4982721;28;20038;-55
2023/06/15 05:59:59;;;;;;;6.47;3.03;;;22.70;90.20;;;;;;4982652;28;20043;-50
2023/06/15 06:02:25;;;;;;;7.55;3.03;;;22.60;89.30;;;;;;4983184;28;20232;-53
2023/06/15 06:04:51;;;;;;;5.93;3.30;;;22.60;89.40;;;;;;4983030;28;20066;-56
2023/06/15 06:07:16;;;;;;;4.00;3.10;;;22.70;89.00;;;;;;4982429;28;20050;-55
2023/06/15 06:09:42;;;;;;;7.95;3.20;;;22.80;88.90;;;;;;4982579;28;20046;-55
2023/06/15 06:12:09;;;;;;;4.82;3.33;;;23.20;88.60;;;;;;4983087;28;20053;-51
2023/06/15 06:14:34;;;;;;;6.45;3.22;;;23.40;88.60;;;;;;4982608;28;20052;-57
2023/06/15 06:17:00;;;;;;;6.00;3.40;;;23.70;88.20;;;;;;4982895;28;20124;-57
2023/06/15 06:19:25;;;;;;;8.13;3.35;;;23.90;87.40;;;;;;4982992;28;20043;-57
2023/06/15 06:21:51;;;;;;;7.45;3.35;;;24.10;87.20;;;;;;4982867;28;20069;-54
2023/06/15 06:24:17;;;;;;;7.13;3.22;;;24.20;87.20;;;;;;4981835;28;20056;-51
2023/06/15 06:26:43;;;;;;;6.15;3.20;;;24.40;86.90;;;;;;4977400;28;20054;-51
2023/06/15 06:29:09;;;;;;;6.15;3.40;;;24.60;86.40;;;;;;4971867;28;20418;-57
2023/06/15 06:31:35;;;;;;;7.88;3.85;;;24.50;86.00;;;;;;4973962;28;20058;-54
2023/06/15 06:34:00;;;;;;;5.32;3.00;;;24.50;86.20;;;;;;4976869;28;20395;-53
2023/06/15 06:36:26;;;;;;;8.05;3.30;;;24.70;85.90;;;;;;4962270;28;20047;-52
2023/06/15 06:38:52;;;;;;;7.47;3.20;;;24.80;85.70;;;;;;4962411;28;20074;-57
2023/06/15 06:41:18;;;;;;;5.50;2.97;;;24.90;85.70;;;;;;4951424;28;20117;-48
2023/06/15 06:43:43;;;;;;;4.82;3.13;;;25.10;85.90;;;;;;4982522;28;20394;-58
2023/06/15 06:46:09;;;;;;;11.75;3.20;;;25.20;85.20;;;;;;4961884;28;20055;-53
2023/06/15 06:48:36;;;;;;;8.43;3.10;;;25.20;85.40;;;;;;4977862;28;20409;-51
2023/06/15 06:51:01;;;;;;;5.00;3.00;;;25.20;84.80;;;;;;4981058;28;20319;-52
2023/06/15 06:53:27;;;;;;;5.65;3.22;;;25.10;84.90;;;;;;4981201;28;20030;-55
2023/06/15 06:55:52;;;;;;;6.35;3.20;;;25.20;84.70;;;;;;4981869;28;20210;-56
2023/06/15 06:58:19;;;;;;;5.47;3.00;;;25.30;84.80;;;;;;4982328;28;20049;-54
2023/06/15 07:00:45;;;;;;;9.25;3.38;;;25.50;84.40;;;;;;4964429;28;20104;-52
2023/06/15 07:03:10;;;;;;;6.10;3.15;;;25.60;83.70;;;;;;4982761;28;20077;-57
2023/06/15 07:05:36;;;;;;;6.82;3.58;;;25.50;83.20;;;;;;4980953;28;20046;-57
2023/06/15 07:08:01;;;;;;;6.72;3.25;;;25.20;82.80;;;;;;4982134;28;20504;-53
2023/06/15 07:10:27;;;;;;;5.35;3.40;;;25.00;83.60;;;;;;4981506;28;20046;-53
2023/06/15 07:12:55;;;;;;;7.30;3.10;;;25.00;84.00;;;;;;4980978;28;20050;-51
2023/06/15 07:15:27;;;;;;;4.82;2.83;;;25.10;84.00;;;;;;4985200;28;20053;-54
2023/06/15 07:17:53;;;;;;;5.72;2.95;;;25.30;84.10;;;;;;4976175;28;20414;-51
2023/06/15 07:20:19;;;;;;;9.48;3.30;;;25.40;83.70;;;;;;4972773;28;20391;-53
2023/06/15 07:22:44;;;;;;;8.48;3.13;;;25.30;83.30;;;;;;4965514;28;20051;-56
2023/06/15 07:25:10;;;;;;;6.90;2.90;;;25.00;83.30;;;;;;4967263;28;20497;-57
2023/06/15 07:27:35;;;;;;;4.55;2.80;;;25.00;83.60;;;;;;4977284;28;20043;-55
2023/06/15 07:30:01;;;;;;;7.10;2.95;;;25.00;83.60;;;;;;4983288;28;20046;-52
2023/06/15 07:32:27;;;;;;;5.10;2.75;;;24.90;83.40;;;;;;4983302;28;20057;-53
2023/06/15 07:34:52;;;;;;;5.20;2.88;;;24.90;83.50;;;;;;4983600;28;20045;-56
2023/06/15 07:37:18;;;;;;;6.18;2.90;;;25.00;83.60;;;;;;4983618;28;20034;-57
2023/06/15 07:39:43;;;;;;;8.30;3.28;;;25.00;82.40;;;;;;4982472;28;20061;-57
2023/06/15 07:42:09;;;;;;;7.78;3.08;;;24.90;82.50;;;;;;4984055;28;20129;-55
2023/06/15 07:44:35;;;;;;;4.90;2.85;;;25.00;82.90;;;;;;4983605;28;20057;-55
2023/06/15 07:47:01;;;;;;;6.85;2.92;;;25.30;82.70;;;;;;4966032;28;20054;-58
2023/06/15 07:49:26;;;;;;;7.07;3.00;;;25.40;82.50;;;;;;4985324;28;20049;-55
2023/06/15 07:51:52;;;;;;;13.55;3.10;;;25.40;82.50;;;;;;4971707;28;20602;-55
2023/06/15 07:54:18;;;;;;;5.22;2.80;;;25.40;82.30;;;;;;4988115;28;20480;-50
2023/06/15 07:56:45;;;;;;;7.78;2.85;;;25.30;82.70;;;;;;4988346;28;20046;-53
2023/06/15 07:59:11;;;;;;;9.35;3.55;;;25.20;83.10;;;;;;4988237;28;20043;-58
2023/06/15 08:01:36;;;;;;;8.55;2.90;;;25.00;82.00;;;;;;4987855;28;20089;-56
2023/06/15 08:04:02;;;;;;;6.63;2.70;;;24.80;83.00;;;;;;4987927;28;20043;-54
2023/06/15 08:06:28;;;;;;;4.60;3.00;;;24.90;83.20;;;;;;4987803;28;20105;-51
2023/06/15 08:08:54;;;;;;;5.63;2.72;;;25.00;82.40;;;;;;4986051;28;20058;-55
2023/06/15 08:11:20;;;;;;;7.93;3.00;;;25.10;82.60;;;;;;4987831;28;20597;-59
2023/06/15 08:13:46;;;;;;;9.27;3.05;;;25.20;82.40;;;;;;4988205;28;20129;-57
2023/06/15 08:16:12;;;;;;;7.22;3.03;;;25.30;82.10;;;;;;4988148;28;20121;-54
2023/06/15 08:18:37;;;;;;;6.00;3.30;;;25.50;81.70;;;;;;4988546;28;20379;-55
2023/06/15 08:21:03;;;;;;;7.43;3.17;;;25.70;81.60;;;;;;4987117;28;20046;-56
2023/06/15 08:23:28;;;;;;;4.65;2.88;;;25.70;81.10;;;;;;4987750;28;20532;-54
2023/06/15 08:25:54;;;;;;;4.63;2.78;;;25.60;81.20;;;;;;4987890;28;20069;-59
2023/06/15 08:28:20;;;;;;;3.95;2.60;;;25.50;81.00;;;;;;4987510;28;20054;-55
2023/06/15 08:30:46;;;;;;;6.10;2.67;;;25.50;79.70;;;;;;4988342;28;20066;-54
2023/06/15 08:33:11;;;;;;;3.80;2.65;;;25.50;79.10;;;;;;4987962;28;20670;-56
2023/06/15 08:35:37;;;;;;;7.05;3.10;;;25.60;79.40;;;;;;4987935;28;20157;-57
2023/06/15 08:38:02;;;;;;;7.32;3.03;;;25.70;79.60;;;;;;4986944;28;20048;-58
2023/06/15 08:40:28;;;;;;;4.82;2.83;;;25.90;79.30;;;;;;4988179;28;20107;-57
2023/06/15 08:42:56;;;;;;;5.05;2.55;;;26.00;79.00;;;;;;4985039;28;20097;-47
2023/06/15 08:45:23;;;;;;;7.00;3.47;;;26.10;78.00;;;;;;4970311;28;20129;-55
2023/06/15 08:47:52;;;;;;;4.13;2.60;;;26.20;78.00;;;;;;4967931;28;20063;-48
2023/06/15 08:50:18;;;;;;;8.32;3.00;;;26.40;78.00;;;;;;4970103;28;20573;-47
2023/06/15 08:52:45;;;;;;;5.97;2.90;;;26.70;78.20;;;;;;4988030;28;20089;-50
2023/06/15 08:55:15;;;;;;;8.98;3.05;;;27.00;77.90;;;;;;4987039;28;20042;-55
2023/06/15 08:57:41;;;;;;;6.68;2.88;;;27.00;76.90;;;;;;4987706;28;20046;-47
2023/06/15 09:00:09;;;;;;;4.85;2.80;;;27.20;76.50;;;;;;4987165;28;20075;-52
2023/06/15 09:02:40;;;;;;;8.15;3.05;;;27.30;76.70;;;;;;4982168;28;20466;-53
2023/06/15 09:05:06;;;;;;;12.75;3.13;;;27.40;75.20;;;;;;4950916;28;20043;-51
2023/06/15 09:07:32;;;;;;;5.55;2.88;;;27.40;76.20;;;;;;4968224;28;20737;-55
2023/06/15 09:10:13;;;;;;;6.00;3.10;;;27.70;76.70;;;;;;4966650;28;20577;-53
2023/06/15 09:12:46;;;;;;;8.43;3.10;;;27.90;76.00;;;;;;4967557;28;20078;-56
2023/06/15 09:15:28;;;;;;;4.07;2.87;;;28.10;75.20;;;;;;4967290;28;20486;-57
2023/06/15 09:17:55;;;;;;;5.88;3.00;;;28.20;74.50;;;;;;4967600;28;20285;-55
2023/06/15 09:20:24;;;;;;;5.35;3.00;;;28.40;75.70;;;;;;4967624;28;20413;-51
2023/06/15 09:22:50;;;;;;;6.85;3.33;;;28.30;74.10;;;;;;4967062;28;20043;-55
2023/06/15 09:25:21;;;;;;;4.53;2.78;;;28.20;74.10;;;;;;4967784;28;20104;-54
2023/06/15 09:27:57;;;;;;;5.85;2.75;;;28.30;74.00;;;;;;4967965;28;20594;-50
2023/06/15 09:30:34;;;;;;;4.78;2.50;;;28.50;72.70;;;;;;4967533;28;20051;-48
2023/06/15 09:33:20;;;;;;;5.70;3.08;;;28.50;71.10;;;;;;4966739;28;20537;-50
2023/06/15 09:35:56;;;;;;;6.20;3.22;;;28.30;72.70;;;;;;4966596;28;20543;-52
2023/06/15 09:38:21;;;;;;;5.45;2.97;;;28.00;71.40;;;;;;4956679;28;20054;-47
2023/06/15 09:40:47;;;;;;;4.95;3.05;;;27.80;72.90;;;;;;4970521;28;20105;-52
2023/06/15 09:43:13;;;;;;;8.57;2.67;;;27.80;73.90;;;;;;4966306;28;20516;-54
2023/06/15 09:45:54;;;;;;;6.50;3.22;;;28.10;73.90;;;;;;4966171;28;20137;-50
2023/06/15 09:48:21;;;;;;;6.85;2.72;;;28.40;73.90;;;;;;4964296;28;20039;-52
2023/06/15 09:50:53;;;;;;;5.57;2.92;;;28.70;72.60;;;;;;4980888;28;20129;-52
2023/06/15 09:53:19;;;;;;;5.07;2.83;;;28.50;72.10;;;;;;4982432;28;20044;-51
2023/06/15 09:55:48;;;;;;;6.38;2.88;;;28.60;72.80;;;;;;4976713;28;20286;-53
2023/06/15 09:58:14;;;;;;;7.00;3.00;;;28.80;72.20;;;;;;4983457;28;20042;-52
2023/06/15 10:00:40;;;;;;;4.57;3.10;;;29.00;71.00;;;;;;4983340;28;20424;-55
2023/06/15 10:03:09;;;;;;;7.20;3.10;;;28.70;69.90;;;;;;4982893;28;20039;-49
2023/06/15 10:05:41;;;;;;;4.70;2.70;;;28.40;71.00;;;;;;4965186;28;20047;-52
2023/06/15 10:08:08;;;;;;;8.02;2.97;;;28.50;71.50;;;;;;4969477;28;20073;-54
2023/06/15 10:10:39;;;;;;;4.95;2.90;;;28.70;71.80;;;;;;4962305;28;20062;-51
2023/06/15 10:13:10;;;;;;;5.65;2.63;;;29.00;71.00;;;;;;4979615;28;20051;-55
2023/06/15 10:15:36;;;;;;;6.65;2.75;;;29.10;69.80;;;;;;4978205;28;20771;-52
2023/06/15 10:18:03;;;;;;;7.10;2.83;;;29.10;71.10;;;;;;4977198;28;20043;-53
2023/06/15 10:20:30;;;;;;;7.47;2.90;;;29.00;70.20;;;;;;4981814;28;20185;-48
2023/06/15 10:23:14;;;;;;;10.48;3.00;;;28.90;69.70;;;;;;4981239;28;20038;-53
2023/06/15 10:25:42;;;;;;;8.80;2.67;;;28.90;68.90;;;;;;4981478;28;20042;-54
2023/06/15 10:28:12;;;;;;;5.03;2.88;;;28.80;69.80;;;;;;4981696;28;20031;-53
2023/06/15 10:31:00;;;;;;;5.20;2.78;;;28.90;70.30;;;;;;4981370;28;20092;-52
2023/06/15 10:33:51;;;;;;;6.57;2.85;;;29.20;69.90;;;;;;4980666;28;20031;-48
2023/06/15 10:36:27;;;;;;;5.95;3.03;;;29.40;70.60;;;;;;4966287;28;20073;-50
2023/06/15 10:39:03;;;;;;;4.60;2.72;;;29.50;69.20;;;;;;4983828;28;20100;-54
2023/06/15 10:41:29;;;;;;;5.70;2.60;;;29.60;67.60;;;;;;4982169;28;20042;-50
2023/06/15 10:44:00;;;;;;;5.60;3.10;;;29.50;69.40;;;;;;4983593;28;20042;-56
2023/06/15 10:46:30;;;;;;;5.05;2.90;;;29.50;68.80;;;;;;4979669;28;20050;-53
2023/06/15 10:49:05;;;;;;;9.02;3.03;;;29.50;69.60;;;;;;4980605;28;20081;-60
2023/06/15 10:51:55;;;;;;;7.18;2.90;;;29.40;69.20;;;;;;4982173;28;20304;-55
2023/06/15 10:54:22;;;;;;;4.32;2.90;;;29.50;67.90;;;;;;4954305;28;20067;-55
2023/06/15 10:56:55;;;;;;;8.32;2.95;;;29.60;69.10;;;;;;4976977;28;20053;-53
2023/06/15 10:59:43;;;;;;;4.63;2.83;;;29.80;68.90;;;;;;4976272;28;20034;-55
2023/06/15 11:02:28;;;;;;;4.95;2.70;;;29.90;67.70;;;;;;4979626;28;20046;-56
2023/06/15 11:05:00;;;;;;;10.63;3.10;;;29.70;67.20;;;;;;4978929;28;20062;-55
2023/06/15 11:07:48;;;;;;;4.72;3.00;;;29.70;68.40;;;;;;4981303;28;20042;-53
2023/06/15 11:10:22;;;;;;;5.82;3.10;;;29.60;69.10;;;;;;4980847;28;20394;-53
2023/06/15 11:12:58;;;;;;;5.63;2.70;;;29.60;68.80;;;;;;4963770;28;20125;-58
2023/06/15 11:15:31;;;;;;;5.93;2.78;;;29.70;68.90;;;;;;4979285;28;20134;-58
2023/06/15 11:17:57;;;;;;;6.18;2.70;;;29.70;69.20;;;;;;4981739;28;20039;-51
2023/06/15 11:20:44;;;;;;;4.32;2.83;;;29.90;69.70;;;;;;4981337;28;20417;-56
2023/06/15 11:23:16;;;;;;;5.75;2.90;;;30.00;69.50;;;;;;4961180;28;20058;-55
2023/06/15 11:25:54;;;;;;;5.43;2.63;;;29.80;69.00;;;;;;4961914;28;20043;-58
2023/06/15 11:28:24;;;;;;;4.47;2.85;;;29.80;69.20;;;;;;4962424;28;20039;-57
2023/06/15 11:30:51;;;;;;;4.22;2.47;;;29.80;69.50;;;;;;4962049;28;20073;-55
2023/06/15 11:33:29;;;;;;;4.50;2.88;;;29.80;69.80;;;;;;4971766;28;20594;-53
2023/06/15 11:35:56;;;;;;;9.40;2.90;;;30.00;68.30;;;;;;4978948;28;20038;-59
2023/06/15 11:38:29;;;;;;;6.95;2.92;;;30.10;68.50;;;;;;4966088;28;20042;-56
2023/06/15 11:41:02;;;;;;;4.47;2.50;;;30.20;67.20;;;;;;4975500;28;20070;-59
2023/06/15 11:43:41;;;;;;;6.82;3.00;;;30.20;68.00;;;;;;4981086;28;20034;-55
2023/06/15 11:46:11;;;;;;;4.43;2.67;;;30.20;68.00;;;;;;4979192;28;20142;-57
2023/06/15 11:48:37;;;;;;;3.70;2.28;;;30.10;67.90;;;;;;4981089;28;20129;-55
2023/06/15 11:51:07;;;;;;;7.05;2.67;;;30.00;66.60;;;;;;4980753;28;20051;-58
2023/06/15 11:53:33;;;;;;;7.05;3.00;;;29.80;68.10;;;;;;4962073;28;20046;-55
2023/06/15 11:56:00;;;;;;;7.00;2.90;;;29.70;67.50;;;;;;4981534;28;20046;-55
2023/06/15 11:58:26;;;;;;;7.10;3.30;;;29.70;67.70;;;;;;4981108;28;20034;-52
2023/06/15 12:00:51;;;;;;;5.82;3.13;;;29.70;68.00;;;;;;4980775;28;20061;-55
2023/06/15 12:03:18;;;;;;;5.57;2.90;;;29.80;67.60;;;;;;4981573;28;20038;-57
2023/06/15 12:05:44;;;;;;;6.00;2.90;;;30.00;67.10;;;;;;4980776;28;20047;-58
2023/06/15 12:08:11;;;;;;;4.88;2.75;;;30.00;67.50;;;;;;4980721;28;20050;-58
2023/06/15 12:10:37;;;;;;;6.07;2.72;;;29.90;68.30;;;;;;4964287;28;20046;-58
2023/06/15 12:13:09;;;;;;;7.15;2.50;;;30.00;68.40;;;;;;4984043;28;20058;-61
2023/06/15 12:15:38;;;;;;;7.60;2.90;;;30.10;68.30;;;;;;4966535;28;20724;-61
2023/06/15 12:18:07;;;;;;;4.00;2.50;;;30.10;68.10;;;;;;4983278;28;20062;-56
2023/06/15 12:20:36;;;;;;;6.53;2.70;;;30.20;68.30;;;;;;4963999;28;20130;-59
2023/06/15 12:23:02;;;;;;;3.80;2.60;;;30.40;67.50;;;;;;4981395;28;20039;-61
2023/06/15 12:25:47;;;;;;;10.68;2.78;;;30.20;67.40;;;;;;4983700;28;20046;-60
2023/06/15 12:28:21;;;;;;;5.32;2.67;;;30.10;67.30;;;;;;4979112;28;20058;-55
2023/06/15 12:30:47;;;;;;;6.70;3.00;;;30.20;67.40;;;;;;4963272;28;20042;-54
2023/06/15 12:33:30;;;;;;;4.30;2.70;;;30.40;68.10;;;;;;4962111;28;20113;-58
2023/06/15 12:35:59;;;;;;;4.28;2.67;;;30.30;66.40;;;;;;4963699;28;20039;-52
2023/06/15 12:38:26;;;;;;;3.58;2.55;;;30.20;68.00;;;;;;4965522;28;20042;-52
2023/06/15 12:40:52;;;;;;;4.38;2.65;;;30.10;67.90;;;;;;4965403;28;20442;-55
2023/06/15 12:43:18;;;;;;;6.80;2.85;;;30.20;68.20;;;;;;4965463;28;20055;-57
2023/06/15 12:45:44;;;;;;;4.45;2.97;;;30.30;67.80;;;;;;4965245;28;20047;-53
2023/06/15 12:48:09;;;;;;;6.82;2.50;;;30.40;67.70;;;;;;4965307;28;20039;-58